sensor_id;sensor_type;location;lat;lon;timestamp;pressure;altitude;pressure_sealevel;temperature;humidity
28797;BME280;24974;54.444;18.560;2023-05-23T05:06:05;101114.56;;;20.94;49.41
28797;BME280;24974;54.444;18.560;2023-05-23T05:08:36;101123.75;;;20.76;49.90
28797;BME280;24974;54.444;18.560;2023-05-23T05:11:08;101110.66;;;20.60;49.98
28797;BME280;24974;54.444;18.560;2023-05-23T05:13:40;101111.91;;;21.44;47.43
28797;BME280;24974;54.444;18.560;2023-05-23T05:16:11;101113.75;;;21.36;47.46
28797;BME280;24974;54.444;18.560;2023-05-23T05:18:42;101115.47;;;21.21;47.97
28797;BME280;24974;54.444;18.560;2023-05-23T05:21:13;101114.41;;;21.75;46.48
28797;BME280;24974;54.444;18.560;2023-05-23T05:23:44;101104.59;;;22.12;45.88
28797;BME280;24974;54.444;18.560;2023-05-23T05:26:16;101106.53;;;22.38;44.23
28797;BME280;24974;54.444;18.560;2023-05-23T05:28:47;101100.72;;;22.50;43.99
28797;BME280;24974;54.444;18.560;2023-05-23T05:31:19;101103.38;;;22.39;44.14
28797;BME280;24974;54.444;18.560;2023-05-23T05:33:51;101106.78;;;22.25;44.98
28797;BME280;24974;54.444;18.560;2023-05-23T05:36:21;101105.91;;;22.48;44.51
28797;BME280;24974;54.444;18.560;2023-05-23T05:38:53;101102.31;;;22.51;44.56
28797;BME280;24974;54.444;18.560;2023-05-23T05:41:25;101095.69;;;22.96;44.40
28797;BME280;24974;54.444;18.560;2023-05-23T05:43:57;101095.06;;;23.13;43.74
28797;BME280;24974;54.444;18.560;2023-05-23T05:46:28;101088.91;;;22.67;44.60
28797;BME280;24974;54.444;18.560;2023-05-23T05:49:00;101087.66;;;23.35;42.93
28797;BME280;24974;54.444;18.560;2023-05-23T05:51:31;101096.44;;;23.75;42.29
28797;BME280;24974;54.444;18.560;2023-05-23T05:54:02;101093.09;;;23.58;42.73
28797;BME280;24974;54.444;18.560;2023-05-23T05:56:33;101092.34;;;23.65;43.08
28797;BME280;24974;54.444;18.560;2023-05-23T05:59:04;101091.75;;;23.45;43.71
28797;BME280;24974;54.444;18.560;2023-05-23T06:01:36;101095.25;;;23.79;43.49
28797;BME280;24974;54.444;18.560;2023-05-23T06:04:09;101095.00;;;23.98;42.71
28797;BME280;24974;54.444;18.560;2023-05-23T06:06:41;101092.56;;;23.93;42.67
28797;BME280;24974;54.444;18.560;2023-05-23T06:09:13;101083.00;;;23.54;44.40
28797;BME280;24974;54.444;18.560;2023-05-23T06:11:44;101082.38;;;23.71;44.37
28797;BME280;24974;54.444;18.560;2023-05-23T06:14:15;101082.28;;;24.19;42.59
28797;BME280;24974;54.444;18.560;2023-05-23T06:16:49;101080.84;;;24.46;40.86
28797;BME280;24974;54.444;18.560;2023-05-23T06:19:20;101079.34;;;24.81;39.39
28797;BME280;24974;54.444;18.560;2023-05-23T06:21:51;101069.69;;;24.75;39.47
28797;BME280;24974;54.444;18.560;2023-05-23T06:24:23;101071.00;;;25.09;36.62
28797;BME280;24974;54.444;18.560;2023-05-23T06:26:54;101079.38;;;25.02;34.97
28797;BME280;24974;54.444;18.560;2023-05-23T06:29:25;101069.41;;;25.16;34.94
28797;BME280;24974;54.444;18.560;2023-05-23T06:31:56;101069.41;;;25.65;33.72
28797;BME280;24974;54.444;18.560;2023-05-23T06:34:28;101073.03;;;25.87;33.74
28797;BME280;24974;54.444;18.560;2023-05-23T06:36:59;101066.59;;;25.65;34.86
28797;BME280;24974;54.444;18.560;2023-05-23T06:39:30;101072.53;;;24.78;35.98
28797;BME280;24974;54.444;18.560;2023-05-23T06:42:01;101068.22;;;25.45;34.86
28797;BME280;24974;54.444;18.560;2023-05-23T06:44:44;101062.19;;;25.82;34.66
28797;BME280;24974;54.444;18.560;2023-05-23T06:47:15;101062.59;;;25.31;34.82
28797;BME280;24974;54.444;18.560;2023-05-23T06:49:46;101059.69;;;26.13;33.85
28797;BME280;24974;54.444;18.560;2023-05-23T06:52:17;101059.69;;;26.16;34.00
28797;BME280;24974;54.444;18.560;2023-05-23T06:54:48;101060.28;;;26.70;33.33
28797;BME280;24974;54.444;18.560;2023-05-23T06:57:18;101051.25;;;27.00;33.02
28797;BME280;24974;54.444;18.560;2023-05-23T06:59:49;101051.97;;;27.15;32.15
28797;BME280;24974;54.444;18.560;2023-05-23T07:02:20;101046.03;;;27.51;31.67
28797;BME280;24974;54.444;18.560;2023-05-23T07:04:51;101051.59;;;27.13;32.14
28797;BME280;24974;54.444;18.560;2023-05-23T07:07:42;101051.13;;;27.18;35.18
28797;BME280;24974;54.444;18.560;2023-05-23T07:10:13;101057.78;;;27.42;34.81
28797;BME280;24974;54.444;18.560;2023-05-23T07:12:45;101057.25;;;27.02;36.53
28797;BME280;24974;54.444;18.560;2023-05-23T07:15:17;101057.72;;;27.53;35.71
28797;BME280;24974;54.444;18.560;2023-05-23T07:18:10;101058.38;;;26.49;34.55
28797;BME280;24974;54.444;18.560;2023-05-23T07:20:41;101052.13;;;25.85;35.88
28797;BME280;24974;54.444;18.560;2023-05-23T07:23:19;101050.22;;;26.73;34.83
28797;BME280;24974;54.444;18.560;2023-05-23T07:25:51;101045.94;;;26.29;35.64
28797;BME280;24974;54.444;18.560;2023-05-23T07:28:29;101051.34;;;25.77;37.17
28797;BME280;24974;54.444;18.560;2023-05-23T07:31:01;101033.22;;;25.89;37.85
28797;BME280;24974;54.444;18.560;2023-05-23T07:33:33;101037.22;;;25.95;37.23
28797;BME280;24974;54.444;18.560;2023-05-23T07:36:07;101039.47;;;26.50;35.85
28797;BME280;24974;54.444;18.560;2023-05-23T07:38:38;101036.28;;;26.34;35.86
28797;BME280;24974;54.444;18.560;2023-05-23T07:41:09;101036.75;;;26.98;34.88
28797;BME280;24974;54.444;18.560;2023-05-23T07:43:40;101040.16;;;26.72;34.17
28797;BME280;24974;54.444;18.560;2023-05-23T07:46:11;101037.97;;;26.97;33.33
28797;BME280;24974;54.444;18.560;2023-05-23T07:48:42;101036.09;;;26.76;33.36
28797;BME280;24974;54.444;18.560;2023-05-23T07:51:15;101029.94;;;26.96;33.56
28797;BME280;24974;54.444;18.560;2023-05-23T07:53:48;101029.81;;;27.62;32.31
28797;BME280;24974;54.444;18.560;2023-05-23T07:56:19;101030.31;;;27.50;32.89
28797;BME280;24974;54.444;18.560;2023-05-23T07:58:51;101029.06;;;28.64;31.91
28797;BME280;24974;54.444;18.560;2023-05-23T08:01:21;101027.94;;;28.58;32.28
28797;BME280;24974;54.444;18.560;2023-05-23T08:04:05;101028.81;;;28.82;32.09
28797;BME280;24974;54.444;18.560;2023-05-23T08:06:41;101034.47;;;28.51;30.31
28797;BME280;24974;54.444;18.560;2023-05-23T08:09:14;101031.66;;;27.79;29.51
28797;BME280;24974;54.444;18.560;2023-05-23T08:11:52;101027.31;;;28.43;29.16
28797;BME280;24974;54.444;18.560;2023-05-23T08:14:25;101025.06;;;27.52;28.93
28797;BME280;24974;54.444;18.560;2023-05-23T08:17:11;101019.09;;;27.43;28.40
28797;BME280;24974;54.444;18.560;2023-05-23T08:19:42;101028.41;;;27.40;28.22
28797;BME280;24974;54.444;18.560;2023-05-23T08:22:13;101019.56;;;27.38;28.08
28797;BME280;24974;54.444;18.560;2023-05-23T08:24:44;101025.09;;;27.90;27.82
28797;BME280;24974;54.444;18.560;2023-05-23T08:27:15;101019.75;;;27.61;27.18
28797;BME280;24974;54.444;18.560;2023-05-23T08:29:47;101022.50;;;27.23;28.25
28797;BME280;24974;54.444;18.560;2023-05-23T08:32:18;101019.69;;;27.65;27.79
28797;BME280;24974;54.444;18.560;2023-05-23T08:34:49;101017.84;;;27.47;27.72
28797;BME280;24974;54.444;18.560;2023-05-23T08:37:20;101019.50;;;27.86;26.60
28797;BME280;24974;54.444;18.560;2023-05-23T08:39:51;101026.97;;;28.03;26.45
28797;BME280;24974;54.444;18.560;2023-05-23T08:42:43;101020.16;;;27.59;27.15
28797;BME280;24974;54.444;18.560;2023-05-23T08:45:16;101026.25;;;27.51;27.12
28797;BME280;24974;54.444;18.560;2023-05-23T08:47:50;101025.94;;;27.42;27.27
28797;BME280;24974;54.444;18.560;2023-05-23T08:50:27;101025.56;;;27.40;26.96
28797;BME280;24974;54.444;18.560;2023-05-23T08:53:01;101019.19;;;27.77;26.51
28797;BME280;24974;54.444;18.560;2023-05-23T08:55:36;101019.94;;;27.40;26.59
28797;BME280;24974;54.444;18.560;2023-05-23T08:58:07;101025.72;;;28.08;26.57
28797;BME280;24974;54.444;18.560;2023-05-23T09:00:46;101018.91;;;27.68;27.23
28797;BME280;24974;54.444;18.560;2023-05-23T09:03:17;101022.78;;;27.36;26.71
28797;BME280;24974;54.444;18.560;2023-05-23T09:06:15;101028.63;;;28.65;25.43
28797;BME280;24974;54.444;18.560;2023-05-23T09:08:48;101029.38;;;28.05;25.99
28797;BME280;24974;54.444;18.560;2023-05-23T09:11:21;101029.16;;;27.88;26.06
28797;BME280;24974;54.444;18.560;2023-05-23T09:13:54;101026.91;;;28.07;25.62
28797;BME280;24974;54.444;18.560;2023-05-23T09:16:33;101031.13;;;28.60;25.07
28797;BME280;24974;54.444;18.560;2023-05-23T09:19:12;101024.34;;;27.41;26.55
28797;BME280;24974;54.444;18.560;2023-05-23T09:21:46;101031.25;;;27.81;26.22
28797;BME280;24974;54.444;18.560;2023-05-23T09:24:40;101026.91;;;27.28;26.63
28797;BME280;24974;54.444;18.560;2023-05-23T09:27:13;101020.72;;;26.85;27.27
28797;BME280;24974;54.444;18.560;2023-05-23T09:29:45;101023.41;;;27.10;26.80
28797;BME280;24974;54.444;18.560;2023-05-23T09:32:21;101020.53;;;27.99;26.45
28797;BME280;24974;54.444;18.560;2023-05-23T09:34:58;101013.72;;;27.97;26.57
28797;BME280;24974;54.444;18.560;2023-05-23T09:37:42;101016.25;;;27.87;26.17
28797;BME280;24974;54.444;18.560;2023-05-23T09:40:15;101021.41;;;28.30;25.45
28797;BME280;24974;54.444;18.560;2023-05-23T09:42:52;101025.00;;;28.00;25.83
28797;BME280;24974;54.444;18.560;2023-05-23T09:45:31;101015.31;;;27.15;27.15
28797;BME280;24974;54.444;18.560;2023-05-23T09:48:11;101006.34;;;27.24;27.33
28797;BME280;24974;54.444;18.560;2023-05-23T09:50:44;101014.28;;;27.84;26.72
28797;BME280;24974;54.444;18.560;2023-05-23T09:53:15;101013.13;;;27.78;27.61
28797;BME280;24974;54.444;18.560;2023-05-23T09:55:49;101006.06;;;28.89;26.21
28797;BME280;24974;54.444;18.560;2023-05-23T09:58:22;101007.59;;;28.66;25.86
28797;BME280;24974;54.444;18.560;2023-05-23T10:00:58;101017.78;;;28.60;26.11
28797;BME280;24974;54.444;18.560;2023-05-23T10:03:36;101020.09;;;29.23;25.29
28797;BME280;24974;54.444;18.560;2023-05-23T10:06:23;101012.94;;;28.30;25.21
28797;BME280;24974;54.444;18.560;2023-05-23T10:09:03;101011.88;;;28.78;25.58
28797;BME280;24974;54.444;18.560;2023-05-23T10:14:09;101010.91;;;28.31;24.42
28797;BME280;24974;54.444;18.560;2023-05-23T10:16:52;101013.50;;;28.14;24.77
28797;BME280;24974;54.444;18.560;2023-05-23T10:19:24;101008.16;;;29.12;24.19
28797;BME280;24974;54.444;18.560;2023-05-23T10:22:03;101003.03;;;30.17;23.52
28797;BME280;24974;54.444;18.560;2023-05-23T10:24:36;101003.13;;;29.90;23.44
28797;BME280;24974;54.444;18.560;2023-05-23T10:27:10;100996.41;;;29.37;24.48
28797;BME280;24974;54.444;18.560;2023-05-23T10:29:42;100998.56;;;29.76;23.47
28797;BME280;24974;54.444;18.560;2023-05-23T10:32:14;100995.44;;;28.42;24.21
28797;BME280;24974;54.444;18.560;2023-05-23T10:35:04;101010.66;;;27.84;24.76
28797;BME280;24974;54.444;18.560;2023-05-23T10:37:51;100996.50;;;29.96;22.73
28797;BME280;24974;54.444;18.560;2023-05-23T10:43:30;100997.78;;;30.71;22.35
28797;BME280;24974;54.444;18.560;2023-05-23T10:46:07;101001.56;;;30.08;22.63
28797;BME280;24974;54.444;18.560;2023-05-23T10:48:42;100984.44;;;29.49;23.24
28797;BME280;24974;54.444;18.560;2023-05-23T10:51:14;100994.31;;;28.63;23.96
28797;BME280;24974;54.444;18.560;2023-05-23T10:53:46;100995.47;;;28.96;23.28
28797;BME280;24974;54.444;18.560;2023-05-23T10:56:23;100988.16;;;29.22;22.95
28797;BME280;24974;54.444;18.560;2023-05-23T10:58:55;100995.75;;;29.29;23.75
28797;BME280;24974;54.444;18.560;2023-05-23T11:01:26;100990.56;;;29.24;24.97
28797;BME280;24974;54.444;18.560;2023-05-23T11:04:03;100996.91;;;30.18;23.10
28797;BME280;24974;54.444;18.560;2023-05-23T11:06:42;100989.97;;;30.39;22.38
28797;BME280;24974;54.444;18.560;2023-05-23T11:09:15;100997.22;;;29.37;21.91
28797;BME280;24974;54.444;18.560;2023-05-23T11:22:29;100986.56;;;29.21;23.14
28797;BME280;24974;54.444;18.560;2023-05-23T11:25:05;100989.84;;;29.20;22.70
28797;BME280;24974;54.444;18.560;2023-05-23T11:27:38;100988.56;;;31.49;22.63
28797;BME280;24974;54.444;18.560;2023-05-23T11:32:52;100986.38;;;31.40;21.61
28797;BME280;24974;54.444;18.560;2023-05-23T11:35:24;100988.50;;;31.03;21.71
28797;BME280;24974;54.444;18.560;2023-05-23T11:37:56;100983.06;;;29.61;23.53
28797;BME280;24974;54.444;18.560;2023-05-23T11:40:35;100987.03;;;29.40;24.44
28797;BME280;24974;54.444;18.560;2023-05-23T11:43:12;100991.97;;;29.36;23.79
28797;BME280;24974;54.444;18.560;2023-05-23T11:45:43;100987.44;;;29.85;23.24
28797;BME280;24974;54.444;18.560;2023-05-23T11:48:16;100991.09;;;30.98;22.84
28797;BME280;24974;54.444;18.560;2023-05-23T11:50:49;100984.75;;;29.08;24.69
28797;BME280;24974;54.444;18.560;2023-05-23T12:51:29;100958.28;;;31.29;27.93
28797;BME280;24974;54.444;18.560;2023-05-23T12:54:01;100953.72;;;31.32;28.23
28797;BME280;24974;54.444;18.560;2023-05-23T12:56:32;100947.44;;;31.08;27.32
28797;BME280;24974;54.444;18.560;2023-05-23T12:59:02;100942.22;;;30.74;23.66
28797;BME280;24974;54.444;18.560;2023-05-23T13:01:34;100947.31;;;31.73;21.53
28797;BME280;24974;54.444;18.560;2023-05-23T13:04:05;100950.09;;;31.31;21.10
28797;BME280;24974;54.444;18.560;2023-05-23T13:06:36;100948.16;;;31.28;20.97
28797;BME280;24974;54.444;18.560;2023-05-23T13:09:06;100945.69;;;31.88;21.57
28797;BME280;24974;54.444;18.560;2023-05-23T13:11:37;100947.00;;;30.93;25.73
28797;BME280;24974;54.444;18.560;2023-05-23T13:14:08;100943.69;;;30.78;24.78
28797;BME280;24974;54.444;18.560;2023-05-23T13:16:39;100943.91;;;30.51;21.67
28797;BME280;24974;54.444;18.560;2023-05-23T13:19:10;100955.84;;;31.73;21.08
28797;BME280;24974;54.444;18.560;2023-05-23T13:21:41;100952.38;;;31.20;26.17
28797;BME280;24974;54.444;18.560;2023-05-23T13:24:12;100961.16;;;30.24;28.82
28797;BME280;24974;54.444;18.560;2023-05-23T13:26:43;100962.13;;;29.55;31.64
28797;BME280;24974;54.444;18.560;2023-05-23T13:29:14;100964.78;;;28.37;35.53
28797;BME280;24974;54.444;18.560;2023-05-23T13:31:45;100974.69;;;28.53;35.51
28797;BME280;24974;54.444;18.560;2023-05-23T13:34:16;100962.41;;;28.36;35.19
28797;BME280;24974;54.444;18.560;2023-05-23T13:36:47;100959.00;;;28.48;35.12
28797;BME280;24974;54.444;18.560;2023-05-23T13:39:18;100968.06;;;27.64;36.44
28797;BME280;24974;54.444;18.560;2023-05-23T13:41:52;100959.09;;;28.41;35.21
28797;BME280;24974;54.444;18.560;2023-05-23T13:44:23;100958.59;;;28.46;32.98
28797;BME280;24974;54.444;18.560;2023-05-23T13:46:54;100950.53;;;29.69;31.23
28797;BME280;24974;54.444;18.560;2023-05-23T13:49:25;100949.88;;;29.38;31.94
28797;BME280;24974;54.444;18.560;2023-05-23T13:51:56;100945.94;;;29.55;32.02
28797;BME280;24974;54.444;18.560;2023-05-23T13:54:26;100948.16;;;30.43;30.32
28797;BME280;24974;54.444;18.560;2023-05-23T13:56:58;100957.06;;;29.86;31.27
28797;BME280;24974;54.444;18.560;2023-05-23T13:59:29;100944.88;;;29.45;32.44
28797;BME280;24974;54.444;18.560;2023-05-23T14:01:59;100939.56;;;30.11;31.25
28797;BME280;24974;54.444;18.560;2023-05-23T14:04:31;100941.44;;;29.97;30.72
28797;BME280;24974;54.444;18.560;2023-05-23T14:07:02;100942.69;;;29.76;29.79
28797;BME280;24974;54.444;18.560;2023-05-23T14:09:33;100943.66;;;29.46;31.66
28797;BME280;24974;54.444;18.560;2023-05-23T14:12:04;100941.66;;;29.67;31.46
28797;BME280;24974;54.444;18.560;2023-05-23T14:14:35;100936.56;;;29.35;31.83
28797;BME280;24974;54.444;18.560;2023-05-23T14:17:06;100934.91;;;29.61;31.62
28797;BME280;24974;54.444;18.560;2023-05-23T14:19:36;100934.03;;;29.40;30.79
28797;BME280;24974;54.444;18.560;2023-05-23T14:22:07;100931.91;;;28.51;31.02
28797;BME280;24974;54.444;18.560;2023-05-23T14:24:38;100930.44;;;27.78;33.60
28797;BME280;24974;54.444;18.560;2023-05-23T14:27:09;100933.00;;;27.62;33.21
28797;BME280;24974;54.444;18.560;2023-05-23T14:29:40;100930.91;;;26.83;34.78
28797;BME280;24974;54.444;18.560;2023-05-23T14:32:15;100922.81;;;26.85;36.19
28797;BME280;24974;54.444;18.560;2023-05-23T14:34:46;100936.50;;;26.28;37.13
28797;BME280;24974;54.444;18.560;2023-05-23T14:37:17;100935.19;;;26.50;35.76
28797;BME280;24974;54.444;18.560;2023-05-23T14:39:48;100938.59;;;26.79;35.98
28797;BME280;24974;54.444;18.560;2023-05-23T14:42:19;100935.56;;;26.56;36.96
28797;BME280;24974;54.444;18.560;2023-05-23T14:44:51;100936.25;;;27.22;36.25
28797;BME280;24974;54.444;18.560;2023-05-23T14:47:22;100935.19;;;27.84;35.70
28797;BME280;24974;54.444;18.560;2023-05-23T14:49:53;100933.03;;;27.20;36.82
28797;BME280;24974;54.444;18.560;2023-05-23T14:52:24;100925.31;;;26.10;38.48
28797;BME280;24974;54.444;18.560;2023-05-23T14:54:54;100930.81;;;26.42;38.00
28797;BME280;24974;54.444;18.560;2023-05-23T14:57:25;100930.16;;;26.79;37.71
28797;BME280;24974;54.444;18.560;2023-05-23T14:59:56;100930.00;;;26.97;38.00
28797;BME280;24974;54.444;18.560;2023-05-23T15:02:27;100932.94;;;26.13;39.25
28797;BME280;24974;54.444;18.560;2023-05-23T15:04:57;100934.38;;;25.44;41.29
28797;BME280;24974;54.444;18.560;2023-05-23T15:07:28;100935.75;;;26.16;39.52
28797;BME280;24974;54.444;18.560;2023-05-23T15:10:00;100930.16;;;26.09;40.42
28797;BME280;24974;54.444;18.560;2023-05-23T15:12:32;100935.53;;;25.72;40.53
28797;BME280;24974;54.444;18.560;2023-05-23T15:15:03;100937.97;;;25.48;41.43
28797;BME280;24974;54.444;18.560;2023-05-23T15:17:34;100936.41;;;24.83;40.79
28797;BME280;24974;54.444;18.560;2023-05-23T15:20:05;100928.69;;;25.62;40.99
28797;BME280;24974;54.444;18.560;2023-05-23T15:22:36;100935.19;;;24.91;42.83
28797;BME280;24974;54.444;18.560;2023-05-23T15:25:07;100939.25;;;25.04;42.66
28797;BME280;24974;54.444;18.560;2023-05-23T15:27:38;100933.16;;;25.42;41.85
28797;BME280;24974;54.444;18.560;2023-05-23T15:30:09;100935.59;;;25.25;43.17
28797;BME280;24974;54.444;18.560;2023-05-23T15:32:40;100937.63;;;25.14;43.17
28797;BME280;24974;54.444;18.560;2023-05-23T15:35:11;100929.81;;;25.93;40.56
28797;BME280;24974;54.444;18.560;2023-05-23T15:37:42;100931.84;;;25.92;40.20
28797;BME280;24974;54.444;18.560;2023-05-23T15:40:14;100933.09;;;25.84;40.96
28797;BME280;24974;54.444;18.560;2023-05-23T15:42:45;100940.66;;;25.98;39.76
28797;BME280;24974;54.444;18.560;2023-05-23T15:45:15;100940.78;;;25.52;39.50
28797;BME280;24974;54.444;18.560;2023-05-23T15:47:46;100934.00;;;25.28;39.95
28797;BME280;24974;54.444;18.560;2023-05-23T15:50:17;100936.97;;;26.12;38.54
28797;BME280;24974;54.444;18.560;2023-05-23T15:52:49;100935.59;;;24.86;41.31
28797;BME280;24974;54.444;18.560;2023-05-23T15:55:20;100933.09;;;25.70;41.16
28797;BME280;24974;54.444;18.560;2023-05-23T15:57:51;100934.38;;;25.51;41.63
28797;BME280;24974;54.444;18.560;2023-05-23T16:00:22;100934.31;;;25.62;41.24
28797;BME280;24974;54.444;18.560;2023-05-23T16:02:53;100936.56;;;26.13;39.24
28797;BME280;24974;54.444;18.560;2023-05-23T16:05:23;100933.25;;;26.40;38.16
28797;BME280;24974;54.444;18.560;2023-05-23T16:07:55;100931.88;;;25.82;37.23
28797;BME280;24974;54.444;18.560;2023-05-23T16:10:26;100929.78;;;26.70;36.43
28797;BME280;24974;54.444;18.560;2023-05-23T16:12:57;100927.91;;;27.08;36.51
28797;BME280;24974;54.444;18.560;2023-05-23T16:15:27;100926.50;;;26.16;36.97
28797;BME280;24974;54.444;18.560;2023-05-23T16:17:58;100923.91;;;25.59;35.59
28797;BME280;24974;54.444;18.560;2023-05-23T16:20:29;100933.06;;;25.81;35.49
28797;BME280;24974;54.444;18.560;2023-05-23T16:23:00;100927.94;;;25.33;35.72
28797;BME280;24974;54.444;18.560;2023-05-23T16:25:31;100925.06;;;25.76;35.50
28797;BME280;24974;54.444;18.560;2023-05-23T16:28:01;100924.56;;;26.68;33.96
28797;BME280;24974;54.444;18.560;2023-05-23T16:30:32;100923.13;;;26.46;34.71
28797;BME280;24974;54.444;18.560;2023-05-23T16:33:03;100925.78;;;26.67;34.16
28797;BME280;24974;54.444;18.560;2023-05-23T16:35:34;100926.16;;;26.69;32.83
28797;BME280;24974;54.444;18.560;2023-05-23T16:38:04;100922.47;;;26.13;34.72
28797;BME280;24974;54.444;18.560;2023-05-23T16:40:36;100922.69;;;25.60;33.50
28797;BME280;24974;54.444;18.560;2023-05-23T16:43:07;100921.03;;;25.84;33.38
28797;BME280;24974;54.444;18.560;2023-05-23T16:45:38;100916.19;;;25.81;32.95
28797;BME280;24974;54.444;18.560;2023-05-23T16:48:09;100919.13;;;25.09;34.63
28797;BME280;24974;54.444;18.560;2023-05-23T16:50:40;100920.66;;;25.67;33.69
28797;BME280;24974;54.444;18.560;2023-05-23T16:53:11;100914.38;;;26.22;32.65
28797;BME280;24974;54.444;18.560;2023-05-23T16:55:41;100924.28;;;25.61;34.66
28797;BME280;24974;54.444;18.560;2023-05-23T16:58:12;100928.63;;;25.94;33.36
28797;BME280;24974;54.444;18.560;2023-05-23T17:00:43;100923.84;;;25.73;33.01
28797;BME280;24974;54.444;18.560;2023-05-23T17:03:14;100929.19;;;26.41;31.95
28797;BME280;24974;54.444;18.560;2023-05-23T17:05:45;100923.69;;;26.16;31.81
28797;BME280;24974;54.444;18.560;2023-05-23T17:08:15;100931.97;;;26.48;31.30
28797;BME280;24974;54.444;18.560;2023-05-23T17:10:46;100923.47;;;25.64;32.95
28797;BME280;24974;54.444;18.560;2023-05-23T17:13:17;100933.09;;;25.84;32.28
28797;BME280;24974;54.444;18.560;2023-05-23T17:15:48;100930.66;;;25.86;32.20
28797;BME280;24974;54.444;18.560;2023-05-23T17:18:19;100934.81;;;24.96;33.88
28797;BME280;24974;54.444;18.560;2023-05-23T17:20:49;100941.97;;;25.54;33.10
28797;BME280;24974;54.444;18.560;2023-05-23T17:23:20;100933.59;;;25.26;33.67
28797;BME280;24974;54.444;18.560;2023-05-23T17:25:53;100932.59;;;26.07;32.66
28797;BME280;24974;54.444;18.560;2023-05-23T17:28:23;100930.41;;;26.36;32.95
28797;BME280;24974;54.444;18.560;2023-05-23T17:30:55;100937.16;;;26.53;32.55
28797;BME280;24974;54.444;18.560;2023-05-23T17:33:26;100939.97;;;27.09;31.71
28797;BME280;24974;54.444;18.560;2023-05-23T17:35:57;100940.66;;;26.02;34.47
28797;BME280;24974;54.444;18.560;2023-05-23T17:38:28;100939.13;;;25.69;35.02
28797;BME280;24974;54.444;18.560;2023-05-23T17:40:58;100936.41;;;25.26;36.46
28797;BME280;24974;54.444;18.560;2023-05-23T17:43:29;100941.25;;;25.15;37.06
28797;BME280;24974;54.444;18.560;2023-05-23T17:46:00;100938.78;;;25.02;37.54
28797;BME280;24974;54.444;18.560;2023-05-23T17:48:31;100941.63;;;24.81;38.16
28797;BME280;24974;54.444;18.560;2023-05-23T17:51:02;100935.94;;;24.35;38.93
28797;BME280;24974;54.444;18.560;2023-05-23T17:53:33;100942.38;;;24.49;39.23
28797;BME280;24974;54.444;18.560;2023-05-23T17:56:03;100934.84;;;23.66;40.40
28797;BME280;24974;54.444;18.560;2023-05-23T17:58:36;100940.13;;;23.82;39.88
28797;BME280;24974;54.444;18.560;2023-05-23T18:01:07;100942.59;;;23.98;40.22
28797;BME280;24974;54.444;18.560;2023-05-23T18:03:38;100951.44;;;23.34;40.89
28797;BME280;24974;54.444;18.560;2023-05-23T18:06:09;100951.31;;;23.75;40.00
28797;BME280;24974;54.444;18.560;2023-05-23T18:08:39;100947.16;;;23.55;40.22
28797;BME280;24974;54.444;18.560;2023-05-23T18:11:10;100947.38;;;23.97;38.98
28797;BME280;24974;54.444;18.560;2023-05-23T18:13:41;100949.78;;;23.95;39.46
28797;BME280;24974;54.444;18.560;2023-05-23T18:16:12;100949.88;;;24.13;39.23
28797;BME280;24974;54.444;18.560;2023-05-23T18:18:43;100950.56;;;23.89;38.83
28797;BME280;24974;54.444;18.560;2023-05-23T18:21:14;100948.53;;;23.20;40.33
28797;BME280;24974;54.444;18.560;2023-05-23T18:23:45;100953.19;;;23.02;40.94
28797;BME280;24974;54.444;18.560;2023-05-23T18:26:16;100955.66;;;23.65;39.93
28797;BME280;24974;54.444;18.560;2023-05-23T18:28:47;100957.28;;;23.66;39.11
28797;BME280;24974;54.444;18.560;2023-05-23T18:31:18;100961.88;;;24.03;38.45
28797;BME280;24974;54.444;18.560;2023-05-23T18:33:48;100961.88;;;23.99;38.42
28797;BME280;24974;54.444;18.560;2023-05-23T18:36:19;100969.97;;;24.26;37.98
28797;BME280;24974;54.444;18.560;2023-05-23T18:38:50;100967.28;;;24.69;37.30
28797;BME280;24974;54.444;18.560;2023-05-23T18:41:20;100966.41;;;24.36;38.37
28797;BME280;24974;54.444;18.560;2023-05-23T18:43:51;100961.91;;;24.10;39.12
28797;BME280;24974;54.444;18.560;2023-05-23T18:46:22;100970.00;;;23.53;40.26
28797;BME280;24974;54.444;18.560;2023-05-23T18:48:55;100973.06;;;23.96;39.65
28797;BME280;24974;54.444;18.560;2023-05-23T18:51:27;100970.28;;;24.03;39.29
28797;BME280;24974;54.444;18.560;2023-05-23T18:53:58;100974.56;;;23.76;40.04
28797;BME280;24974;54.444;18.560;2023-05-23T18:56:28;100982.75;;;23.43;40.53
28797;BME280;24974;54.444;18.560;2023-05-23T18:58:59;100974.75;;;22.94;41.50
28797;BME280;24974;54.444;18.560;2023-05-23T19:01:31;100976.72;;;23.41;41.36
28797;BME280;24974;54.444;18.560;2023-05-23T19:04:02;100973.66;;;23.09;41.46
28797;BME280;24974;54.444;18.560;2023-05-23T19:06:33;100979.84;;;23.29;40.61
28797;BME280;24974;54.444;18.560;2023-05-23T19:09:03;100983.53;;;23.40;40.85
28797;BME280;24974;54.444;18.560;2023-05-23T19:11:39;100977.41;;;23.24;40.63
28797;BME280;24974;54.444;18.560;2023-05-23T19:14:09;100975.75;;;23.71;39.96
28797;BME280;24974;54.444;18.560;2023-05-23T19:16:40;100979.09;;;24.02;39.36
28797;BME280;24974;54.444;18.560;2023-05-23T19:19:11;100983.47;;;23.92;39.62
28797;BME280;24974;54.444;18.560;2023-05-23T19:21:42;100982.63;;;23.84;39.51
28797;BME280;24974;54.444;18.560;2023-05-23T19:24:13;100981.34;;;23.67;39.96
28797;BME280;24974;54.444;18.560;2023-05-23T19:26:44;100977.69;;;23.60;40.14
28797;BME280;24974;54.444;18.560;2023-05-23T19:29:14;100977.28;;;23.65;40.31